Aho, North Carolina
Current Conditions -  °F | °C
As of 9:55 AM on Thursday 23 Oct 2014 (Local Time) from KTNB Reporting Station
Clear Clear  
Wind Chill: 34°   Ceiling: Unl
Heat Index: 42°   Visibility: 10mi
Dew Point: 33°   Wind: 16mph
Humidity: 71%   Direction: 290°WNW
Pressure: 30.14"   Gusts: 24mph
Location:  36.0473°N, 81.8148°W
Report Text: KTNB 231355Z AUTO 29014G21KT 10SM CLR 06/01 A3014 RMK AO2 T00560007
Loading
Personal Weather Stations






























Interactive Weather Map
Tropical Storm Tracking
New forecast layout! Learn more

10-Day Weather Forecast

Advertisements
Track Severe Weather on mobile